createdAt,value
2023-04-27T00:03:28.498Z,5.35
2023-04-27T00:05:55.588Z,4.78
2023-04-27T00:08:22.204Z,4.97
2023-04-27T00:13:15.333Z,5.55
2023-04-27T00:15:41.857Z,5.53
2023-04-27T00:20:34.956Z,5.30
2023-04-27T00:23:01.547Z,4.80
2023-04-27T00:27:54.516Z,5.38
2023-04-27T00:32:47.823Z,5.22
2023-04-27T00:35:16.421Z,4.90
2023-04-27T00:37:42.977Z,5.55
2023-04-27T00:42:36.584Z,4.65
2023-04-27T00:45:05.147Z,5.55
2023-04-27T00:47:32.791Z,5.05
2023-04-27T00:49:59.531Z,5.50
2023-04-27T00:52:26.246Z,5.82
2023-04-27T00:54:53.827Z,5.47
2023-04-27T00:57:21.356Z,4.60
2023-04-27T00:59:47.943Z,4.90
2023-04-27T01:04:41.443Z,5.57
2023-04-27T01:07:08.144Z,5.07
2023-04-27T01:09:34.755Z,5.43
2023-04-27T01:12:01.617Z,5.22
2023-04-27T01:14:28.204Z,5.82
2023-04-27T01:19:22.714Z,5.20
2023-04-27T01:21:50.427Z,5.13
2023-04-27T01:24:16.977Z,5.13
2023-04-27T01:26:43.515Z,4.78
2023-04-27T01:29:10.113Z,5.28
2023-04-27T01:34:03.574Z,5.10
2023-04-27T01:36:30.195Z,5.30
2023-04-27T01:38:56.699Z,5.05
2023-04-27T01:43:50.414Z,5.50
2023-04-27T01:48:43.622Z,5.03
2023-04-27T01:51:10.996Z,4.55
2023-04-27T01:53:37.655Z,4.70
2023-04-27T01:56:04.461Z,4.38
2023-04-27T01:58:33.023Z,5.90
2023-04-27T02:00:59.549Z,5.95
2023-04-27T02:05:53.000Z,4.88
2023-04-27T02:08:19.627Z,4.90
2023-04-27T02:10:46.333Z,5.35
2023-04-27T02:13:12.883Z,5.35
2023-04-27T02:18:06.202Z,5.28
2023-04-27T02:20:33.225Z,5.93
2023-04-27T02:23:02.209Z,5.32
2023-04-27T02:25:28.930Z,5.97
2023-04-27T02:27:55.865Z,5.20
2023-04-27T02:30:22.961Z,4.65
2023-04-27T02:32:50.178Z,4.63
2023-04-27T02:35:16.767Z,4.97
2023-04-27T02:37:43.355Z,5.25
2023-04-27T02:40:10.326Z,5.20
2023-04-27T02:42:38.868Z,5.78
2023-04-27T02:45:08.786Z,5.50
2023-04-27T02:47:36.514Z,4.57
2023-04-27T02:50:04.090Z,5.68
2023-04-27T02:52:33.934Z,4.75
2023-04-27T02:55:00.659Z,5.45
2023-04-27T02:57:28.261Z,5.43
2023-04-27T02:59:54.900Z,5.30
2023-04-27T03:04:53.522Z,5.90
2023-04-27T03:07:20.435Z,5.70
2023-04-27T03:09:47.117Z,5.28
2023-04-27T03:12:13.644Z,5.88
2023-04-27T03:14:40.174Z,6.95
2023-04-27T03:17:06.709Z,5.53
2023-04-27T03:19:33.227Z,6.07
2023-04-27T03:21:59.924Z,6.40
2023-04-27T03:24:27.697Z,5.75
2023-04-27T03:26:54.292Z,5.30
2023-04-27T03:29:21.173Z,5.85
2023-04-27T03:31:47.785Z,6.10
2023-04-27T03:34:14.420Z,6.60
2023-04-27T03:39:09.908Z,5.90
2023-04-27T03:41:36.538Z,5.70
2023-04-27T03:44:03.280Z,6.07
2023-04-27T03:46:29.963Z,5.97
2023-04-27T03:48:56.520Z,6.75
2023-04-27T03:51:23.168Z,6.10
2023-04-27T03:53:49.739Z,6.03
2023-04-27T03:56:16.426Z,5.45
2023-04-27T03:58:43.100Z,6.10
2023-04-27T04:01:17.234Z,6.20
2023-04-27T04:03:43.860Z,6.97
2023-04-27T04:06:12.022Z,6.35
2023-04-27T04:08:39.174Z,6.13
2023-04-27T04:11:06.352Z,5.93
2023-04-27T04:13:36.022Z,5.55
2023-04-27T04:16:07.731Z,6.10
2023-04-27T04:18:35.491Z,5.72
2023-04-27T04:21:03.243Z,6.03
2023-04-27T04:23:29.791Z,6.10
2023-04-27T04:25:57.722Z,6.97
2023-04-27T04:28:27.516Z,6.75
2023-04-27T04:30:54.583Z,6.47
2023-04-27T04:33:21.489Z,7.28
2023-04-27T04:35:48.590Z,7.65
2023-04-27T04:38:15.156Z,8.10
2023-04-27T04:40:44.431Z,7.65
2023-04-27T04:43:13.350Z,6.03
2023-04-27T04:45:40.986Z,6.70
2023-04-27T04:48:08.625Z,7.28
2023-04-27T04:50:35.130Z,8.25
2023-04-27T04:55:28.470Z,7.53
2023-04-27T04:57:55.185Z,7.00
2023-04-27T05:00:22.496Z,7.13
2023-04-27T05:02:49.365Z,8.38
2023-04-27T05:05:16.121Z,6.63
2023-04-27T05:07:43.082Z,9.68
2023-04-27T05:10:09.960Z,7.95
2023-04-27T05:12:36.535Z,6.35
2023-04-27T05:15:03.653Z,9.80
2023-04-27T05:17:30.302Z,7.28
2023-04-27T05:19:57.647Z,8.30
2023-04-27T05:22:24.225Z,7.80
2023-04-27T05:24:50.886Z,6.35
2023-04-27T05:27:17.470Z,5.95
2023-04-27T05:29:44.378Z,7.35
2023-04-27T05:32:11.027Z,7.22
2023-04-27T05:34:37.552Z,7.80
2023-04-27T05:39:30.614Z,6.80
2023-04-27T05:41:57.525Z,6.70
2023-04-27T05:44:28.429Z,7.53
2023-04-27T05:46:56.315Z,6.50
2023-04-27T05:49:23.430Z,8.38
2023-04-27T05:51:50.116Z,7.93
2023-04-27T05:54:16.882Z,7.03
2023-04-27T05:59:10.009Z,7.68
2023-04-27T06:01:36.947Z,7.82
2023-04-27T06:04:03.960Z,7.85
2023-04-27T06:06:35.419Z,7.50
2023-04-27T06:09:02.159Z,7.65
2023-04-27T06:11:28.849Z,7.68
2023-04-27T06:13:55.499Z,6.80
2023-04-27T06:16:22.180Z,8.27
2023-04-27T06:18:50.838Z,7.63
2023-04-27T06:21:17.925Z,7.28
2023-04-27T06:23:44.539Z,6.75
2023-04-27T06:26:11.498Z,7.10
2023-04-27T06:28:38.266Z,6.53
2023-04-27T06:31:05.368Z,7.00
2023-04-27T06:33:31.952Z,7.28
2023-04-27T06:38:25.183Z,5.85
2023-04-27T06:40:53.079Z,7.22
2023-04-27T06:43:19.692Z,7.40
2023-04-27T06:45:46.491Z,6.00
2023-04-27T06:48:15.203Z,8.55
2023-04-27T06:50:42.018Z,7.35
2023-04-27T06:53:08.824Z,6.85
2023-04-27T06:55:35.681Z,10.25
2023-04-27T06:58:03.469Z,12.57
2023-04-27T07:00:30.665Z,8.15
2023-04-27T07:02:57.392Z,6.30
2023-04-27T07:05:24.005Z,7.15
2023-04-27T07:10:17.089Z,6.72
2023-04-27T07:12:43.727Z,6.20
2023-04-27T07:15:10.659Z,6.90
2023-04-27T07:17:37.209Z,6.65
2023-04-27T07:20:06.128Z,5.57
2023-04-27T07:22:33.649Z,5.65
2023-04-27T07:25:00.422Z,6.45
2023-04-27T07:27:27.466Z,5.78
2023-04-27T07:29:54.708Z,6.40
2023-04-27T07:32:22.022Z,5.88
2023-04-27T07:34:53.703Z,6.28
2023-04-27T07:37:21.271Z,6.38
2023-04-27T07:39:50.291Z,4.93
2023-04-27T07:42:16.862Z,5.15
2023-04-27T07:47:10.647Z,5.40
2023-04-27T07:49:38.325Z,5.47
2023-04-27T07:52:05.301Z,5.15
2023-04-27T07:54:31.853Z,4.53
2023-04-27T07:59:28.579Z,4.30
2023-04-27T08:02:04.085Z,5.32
2023-04-27T08:04:37.986Z,4.18
2023-04-27T08:07:05.138Z,4.32
2023-04-27T08:09:32.421Z,5.57
2023-04-27T08:14:25.480Z,4.93
2023-04-27T08:19:21.595Z,4.70
2023-04-27T08:21:48.110Z,3.90
2023-04-27T08:26:41.275Z,4.75
2023-04-27T08:29:19.347Z,5.20
2023-04-27T08:31:55.671Z,5.25
2023-04-27T08:34:23.126Z,6.10
2023-04-27T08:39:16.174Z,5.20
2023-04-27T08:46:38.262Z,5.03
2023-04-27T08:49:06.169Z,4.55
2023-04-27T08:51:33.428Z,4.85
2023-04-27T08:54:00.213Z,5.32
2023-04-27T08:56:28.637Z,5.53
2023-04-27T08:58:56.907Z,4.68
2023-04-27T09:01:25.300Z,5.25
2023-04-27T09:04:00.469Z,6.25
2023-04-27T09:06:32.002Z,4.30
2023-04-27T09:08:59.063Z,4.97
2023-04-27T09:11:33.747Z,4.57
2023-04-27T09:14:03.121Z,4.80
2023-04-27T09:16:30.827Z,5.00
2023-04-27T09:18:58.729Z,4.80
2023-04-27T09:21:27.788Z,5.07
2023-04-27T09:23:55.981Z,5.47
2023-04-27T09:26:27.061Z,5.35
2023-04-27T09:28:59.667Z,5.53
2023-04-27T09:31:33.636Z,4.60
2023-04-27T09:34:00.406Z,4.80
2023-04-27T09:36:27.093Z,5.88
2023-04-27T09:38:53.789Z,4.72
2023-04-27T09:41:20.652Z,4.93
2023-04-27T09:43:47.437Z,5.68
2023-04-27T09:46:14.811Z,4.75
2023-04-27T09:48:42.604Z,4.57
2023-04-27T09:51:09.320Z,4.70
2023-04-27T09:53:46.660Z,4.70
2023-04-27T09:56:41.713Z,5.15
2023-04-27T09:59:33.034Z,4.10
2023-04-27T10:02:09.881Z,4.63
2023-04-27T10:04:55.153Z,4.22
2023-04-27T10:07:22.180Z,3.88
2023-04-27T10:09:51.922Z,4.00
2023-04-27T10:12:38.038Z,4.55
2023-04-27T10:15:16.250Z,3.88
2023-04-27T10:17:50.465Z,3.58
2023-04-27T10:20:17.984Z,5.07
2023-04-27T10:22:47.060Z,4.70
2023-04-27T10:25:14.963Z,4.45
2023-04-27T10:27:41.557Z,5.00
2023-04-27T10:30:12.752Z,4.10
2023-04-27T10:32:53.388Z,3.95
2023-04-27T10:35:24.570Z,4.47
2023-04-27T10:37:53.056Z,4.65
2023-04-27T10:40:19.844Z,4.45
2023-04-27T10:42:49.502Z,4.25
2023-04-27T10:45:30.270Z,4.30
2023-04-27T10:48:00.432Z,5.50
2023-04-27T10:50:28.034Z,4.72
2023-04-27T10:52:54.571Z,5.25
2023-04-27T10:57:54.179Z,4.13
2023-04-27T11:00:24.055Z,4.25
2023-04-27T11:02:51.273Z,4.65
2023-04-27T11:05:20.088Z,4.82
2023-04-27T11:07:47.963Z,4.28
2023-04-27T11:10:18.730Z,3.83
2023-04-27T11:12:45.971Z,4.30
2023-04-27T11:15:14.165Z,4.10
2023-04-27T11:17:41.181Z,3.15
2023-04-27T11:20:08.828Z,3.40
2023-04-27T11:22:45.010Z,3.67
2023-04-27T11:25:11.864Z,4.10
2023-04-27T11:27:39.779Z,4.10
2023-04-27T11:30:08.015Z,4.13
2023-04-27T11:32:34.625Z,3.80
2023-04-27T11:35:01.628Z,3.67
2023-04-27T11:37:28.226Z,3.53
2023-04-27T11:42:28.433Z,3.55
2023-04-27T11:45:05.844Z,4.13
2023-04-27T11:47:33.688Z,4.32
2023-04-27T11:50:02.343Z,4.20
2023-04-27T11:52:32.802Z,5.95
2023-04-27T11:55:00.435Z,4.85
2023-04-27T11:57:34.398Z,4.13
2023-04-27T12:00:02.419Z,5.20
2023-04-27T12:02:40.830Z,4.38
2023-04-27T12:05:09.564Z,4.22
2023-04-27T12:07:36.390Z,4.97
2023-04-27T12:10:02.963Z,3.63
2023-04-27T12:14:56.035Z,5.65
2023-04-27T12:19:49.153Z,3.47
2023-04-27T12:24:42.760Z,4.05
2023-04-27T12:29:36.882Z,4.38
2023-04-27T12:32:03.485Z,5.10
2023-04-27T12:34:30.051Z,4.10
2023-04-27T12:39:25.396Z,4.00
2023-04-27T12:41:53.134Z,3.92
2023-04-27T12:44:20.535Z,3.72
2023-04-27T12:46:48.542Z,4.55
2023-04-27T12:49:15.778Z,4.70
2023-04-27T12:51:42.507Z,5.00
2023-04-27T12:54:11.224Z,4.55
2023-04-27T12:56:37.960Z,4.82
2023-04-27T12:59:05.983Z,4.38
2023-04-27T13:01:33.271Z,4.30
2023-04-27T13:04:01.800Z,4.97
2023-04-27T13:06:29.509Z,3.75
2023-04-27T13:08:56.426Z,3.47
2023-04-27T13:11:23.854Z,4.20
2023-04-27T13:13:50.690Z,4.28
2023-04-27T13:16:19.252Z,4.13
2023-04-27T13:18:49.366Z,4.03
2023-04-27T13:21:17.890Z,3.95
2023-04-27T13:23:44.429Z,4.00
2023-04-27T13:28:38.143Z,4.70
2023-04-27T13:31:05.473Z,4.05
2023-04-27T13:33:33.543Z,3.85
2023-04-27T13:36:02.352Z,7.55
2023-04-27T13:38:29.043Z,4.65
2023-04-27T13:40:55.812Z,4.18
2023-04-27T13:43:22.346Z,3.95
2023-04-27T13:48:17.425Z,4.88
2023-04-27T13:50:44.012Z,3.85
2023-04-27T13:55:37.425Z,4.70
2023-04-27T13:58:04.803Z,4.32
2023-04-27T14:00:34.492Z,3.95
2023-04-27T14:03:01.623Z,4.75
2023-04-27T14:05:28.733Z,5.07
2023-04-27T14:07:55.340Z,5.20
2023-04-27T14:10:23.023Z,5.05
2023-04-27T14:12:49.908Z,4.28
2023-04-27T14:15:16.938Z,4.85
2023-04-27T14:17:43.527Z,4.13
2023-04-27T14:20:10.242Z,3.63
2023-04-27T14:22:37.091Z,4.43
2023-04-27T14:25:03.898Z,3.40
2023-04-27T14:27:30.540Z,3.60
2023-04-27T14:29:57.099Z,3.17
2023-04-27T14:34:50.200Z,3.83
2023-04-27T14:39:45.266Z,4.63
2023-04-27T14:42:12.136Z,5.22
2023-04-27T14:44:38.673Z,5.32
2023-04-27T14:52:03.184Z,4.05
2023-04-27T14:54:29.741Z,4.10
2023-04-27T14:59:25.434Z,3.88
2023-04-27T15:01:52.175Z,4.38
2023-04-27T15:04:19.028Z,5.05
2023-04-27T15:06:45.928Z,5.32
2023-04-27T15:09:13.499Z,5.20
2023-04-27T15:11:40.440Z,3.28
2023-04-27T15:14:08.569Z,6.10
2023-04-27T15:16:35.520Z,4.78
2023-04-27T15:19:02.462Z,4.22
2023-04-27T15:21:30.355Z,4.97
2023-04-27T15:23:57.149Z,4.13
2023-04-27T15:26:23.803Z,4.43
2023-04-27T15:28:50.717Z,3.85
2023-04-27T15:31:17.366Z,3.53
2023-04-27T15:33:43.915Z,3.72
2023-04-27T15:38:37.017Z,4.65
2023-04-27T15:43:30.196Z,5.18
2023-04-27T15:45:57.045Z,3.85
2023-04-27T15:48:23.566Z,3.15
2023-04-27T15:53:16.550Z,3.53
2023-04-27T15:58:09.894Z,3.47
2023-04-27T16:00:36.854Z,3.47
2023-04-27T16:03:04.247Z,3.90
2023-04-27T16:05:31.210Z,3.80
2023-04-27T16:07:58.351Z,3.85
2023-04-27T16:10:24.908Z,2.97
2023-04-27T16:15:18.187Z,2.85
2023-04-27T16:17:44.744Z,3.95
2023-04-27T16:22:38.085Z,3.93
2023-04-27T16:27:38.277Z,3.92
2023-04-27T16:30:06.658Z,3.80
2023-04-27T16:32:35.327Z,3.25
2023-04-27T16:35:02.384Z,2.22
2023-04-27T16:39:59.099Z,2.50
2023-04-27T16:42:25.739Z,3.22
2023-04-27T16:44:52.410Z,2.60
2023-04-27T16:47:18.965Z,2.58
2023-04-27T16:52:12.173Z,2.10
2023-04-27T16:54:38.707Z,3.13
2023-04-27T16:59:32.410Z,2.40
2023-04-27T17:02:09.075Z,2.83
2023-04-27T17:04:43.476Z,3.35
2023-04-27T17:07:10.038Z,3.47
2023-04-27T17:12:08.113Z,3.72
2023-04-27T17:14:34.698Z,4.00
2023-04-27T17:19:28.546Z,3.78
2023-04-27T17:21:55.446Z,3.92
2023-04-27T17:24:23.974Z,2.50
2023-04-27T17:26:51.296Z,2.53
2023-04-27T17:29:17.821Z,2.92
2023-04-27T17:34:11.713Z,2.47
2023-04-27T17:36:38.626Z,2.80
2023-04-27T17:39:05.145Z,3.70
2023-04-27T17:44:00.372Z,2.97
2023-04-27T17:48:53.381Z,4.20
2023-04-27T17:51:20.009Z,3.10
2023-04-27T17:53:46.666Z,3.72
2023-04-27T17:56:13.258Z,3.22
2023-04-27T18:01:10.035Z,3.60
2023-04-27T18:03:37.078Z,2.78
2023-04-27T18:06:03.747Z,2.90
2023-04-27T18:10:56.975Z,3.05
2023-04-27T18:15:50.392Z,4.40
2023-04-27T18:18:22.575Z,4.07
2023-04-27T18:20:51.220Z,3.80
2023-04-27T18:25:44.324Z,4.57
2023-04-27T18:30:37.903Z,4.27
2023-04-27T18:33:04.659Z,4.00
2023-04-27T18:35:31.261Z,4.30
2023-04-27T18:40:25.818Z,4.88
2023-04-27T18:42:53.411Z,4.28
2023-04-27T18:45:20.264Z,4.50
2023-04-27T18:47:46.934Z,5.20
2023-04-27T18:50:13.720Z,4.18
2023-04-27T18:52:40.500Z,4.22
2023-04-27T18:55:09.008Z,4.43
2023-04-27T18:57:35.581Z,4.20
2023-04-27T19:02:31.859Z,3.83
2023-04-27T19:05:11.378Z,4.10
2023-04-27T19:07:39.955Z,3.75
2023-04-27T19:10:09.318Z,5.07
2023-04-27T19:12:35.970Z,4.40
2023-04-27T19:15:03.237Z,4.95
2023-04-27T19:17:30.170Z,4.30
2023-04-27T19:19:56.936Z,5.15
2023-04-27T19:22:23.469Z,4.65
2023-04-27T19:27:16.481Z,3.88
2023-04-27T19:32:20.830Z,6.38
2023-04-27T19:34:48.616Z,4.18
2023-04-27T19:37:15.966Z,5.00
2023-04-27T19:39:42.547Z,4.70
2023-04-27T19:44:36.015Z,4.83
2023-04-27T19:47:02.506Z,4.53
2023-04-27T19:52:02.878Z,4.15
2023-04-27T19:54:29.567Z,4.90
2023-04-27T19:56:56.230Z,4.30
2023-04-27T19:59:22.892Z,4.32
2023-04-27T20:01:49.601Z,5.00
2023-04-27T20:04:18.007Z,5.00
2023-04-27T20:06:45.162Z,4.55
2023-04-27T20:11:38.658Z,5.25
2023-04-27T20:14:05.630Z,4.18
2023-04-27T20:16:32.307Z,4.82
2023-04-27T20:18:58.884Z,4.50
2023-04-27T20:21:28.037Z,5.32
2023-04-27T20:23:54.761Z,5.07
2023-04-27T20:26:22.402Z,5.18
2023-04-27T20:28:49.076Z,4.75
2023-04-27T20:31:16.071Z,5.03
2023-04-27T20:33:42.662Z,4.95
2023-04-27T20:38:45.433Z,4.20
2023-04-27T20:41:14.893Z,4.65
2023-04-27T20:43:41.469Z,4.93
2023-04-27T20:48:34.702Z,4.93
2023-04-27T20:53:29.740Z,4.55
2023-04-27T20:55:57.028Z,4.03
2023-04-27T20:58:23.672Z,5.47
2023-04-27T21:03:17.118Z,4.55
2023-04-27T21:05:44.128Z,5.00
2023-04-27T21:08:10.850Z,4.22
2023-04-27T21:10:37.423Z,5.95
2023-04-27T21:15:30.983Z,5.10
2023-04-27T21:17:57.552Z,5.00
2023-04-27T21:20:24.217Z,5.18
2023-04-27T21:25:17.304Z,5.50
2023-04-27T21:27:44.019Z,6.18
2023-04-27T21:30:11.118Z,5.57
2023-04-27T21:32:37.724Z,4.85
2023-04-27T21:35:04.595Z,4.40
2023-04-27T21:37:31.183Z,4.32
2023-04-27T21:42:24.202Z,4.47
2023-04-27T21:44:50.712Z,4.65
2023-04-27T21:49:43.707Z,5.72
2023-04-27T21:54:37.651Z,4.28
2023-04-27T21:59:30.819Z,5.25
2023-04-27T22:17:51.275Z,6.70
2023-04-27T22:20:18.930Z,5.78
2023-04-27T22:22:45.906Z,5.32
2023-04-27T22:25:12.701Z,6.05
2023-04-27T22:27:45.142Z,6.07
2023-04-27T22:30:12.832Z,6.90
2023-04-27T22:32:39.399Z,6.00
2023-04-27T22:35:18.716Z,5.43
2023-04-27T22:37:51.736Z,5.03
2023-04-27T22:42:44.798Z,7.47
2023-04-27T22:47:38.800Z,5.82
2023-04-27T22:50:06.694Z,5.95
2023-04-27T22:52:33.799Z,4.90
2023-04-27T22:55:02.133Z,6.03
2023-04-27T22:57:28.954Z,6.20
2023-04-27T22:59:55.697Z,5.88
2023-04-27T23:02:23.192Z,6.30
2023-04-27T23:04:50.039Z,6.50
2023-04-27T23:09:45.862Z,5.97
2023-04-27T23:12:12.453Z,6.43
2023-04-27T23:17:07.546Z,6.40
2023-04-27T23:19:34.717Z,5.55
2023-04-27T23:22:02.029Z,6.03
2023-04-27T23:24:31.797Z,5.90
2023-04-27T23:26:58.557Z,5.50
2023-04-27T23:29:25.436Z,5.25
2023-04-27T23:31:52.091Z,5.93
2023-04-27T23:34:18.715Z,5.47
2023-04-27T23:36:45.302Z,6.35
2023-04-27T23:41:38.330Z,5.25
2023-04-27T23:46:31.473Z,6.07
2023-04-27T23:48:58.092Z,5.13
2023-04-27T23:53:51.160Z,5.90
2023-04-27T23:58:45.914Z,6.40
